Latest Weather Observations for Tuggeranong

IDN60801

Issued at 9:52 pm EDT Thursday 17 January 2019 (issued every 10 minutes, with the page automatically refreshed every 10 minutes)

About weather observations | Map of weather stations | Latest weather observations for NSW | Other Formats
Station Details ID: 070339 Name: TUGGERANONG (ISABELLA PLAINS) AWS Lat: -35.42 Lon: 149.09 Height: 586.7 m
Data from the previous 72 hours. | See also: Recent months at Tuggeranong
Date/Time
EDT
Temp
°C
App
Temp
°C
Dew
Point
°C
Rel
Hum
%
Delta-T
°C
Wind Press
QNH
hPa
Press
MSL
hPa
Rain since
9am
mm
Dir  Spd
km/h
Gust
km/h
Spd
kts
Gust
kts
17/09:30pm 27.7 25.9 13.3 41 8.7 S 15 28 8 15 1013.2 1010.2 2.4
17/09:00pm 27.7 25.0 13.6 42 8.6 SSE 20 32 11 17 1013.1 1010.1 2.4
17/08:30pm 27.5 26.4 15.2 47 7.7 SE 15 33 8 18 1012.1 1009.1 2.4
17/08:00pm 28.4 27.7 17.3 51 7.2 ENE 17 28 9 15 1011.6 1008.6 2.4
17/07:30pm 25.5 28.6 21.0 76 3.0 WSW 6 19 3 10 1010.3 1007.3 2.4
17/07:04pm 27.2 23.6 17.1 54 6.5 WNW 32 61 17 33 1010.5 1007.5 2.0
17/07:00pm 29.4 25.4 15.1 41 9.0 W 30 61 16 33 1010.3 1007.3 0.2
17/06:56pm 33.7 31.6 13.7 30 12.4 WNW 17 61 9 33 1010.0 1007.0 0.0
17/06:30pm 36.8 37.3 12.9 24 14.9 NNW 2 9 1 5 1008.8 1005.8 0.0
17/06:08pm 36.4 33.6 11.3 22 15.2 N 17 44 9 24 1008.8 1005.8 0.0
17/06:00pm 38.2 36.9 11.3 20 16.5 NNW 9 13 5 7 1008.7 1005.6 0.0
17/05:30pm 39.1 37.8 11.3 19 17.0 NW 9 19 5 10 1008.6 1005.5 0.0
17/05:00pm 38.5 37.5 12.3 21 16.3 NNW 9 17 5 9 1008.9 1005.9 0.0
17/04:30pm 39.9 37.6 11.9 19 17.4 NNW 15 20 8 11 1009.1 1006.1 0.0
17/04:00pm 40.1 37.1 12.1 19 17.4 NW 19 30 10 16 1009.5 1006.5 0.0
17/03:30pm 39.4 37.3 13.7 21 16.3 NNW 17 28 9 15 1010.0 1007.0 0.0
17/03:00pm 38.7 37.1 13.8 22 15.8 NNW 15 33 8 18 1010.4 1007.4 0.0
17/02:30pm 38.5 37.0 14.3 23 15.4 NW 15 26 8 14 1010.9 1007.9 0.0
17/02:00pm 37.9 35.5 13.8 23 15.2 NNW 19 28 10 15 1011.3 1008.3 0.0
17/01:30pm 37.2 34.6 13.3 24 15.0 NW 19 30 10 16 1011.8 1008.9 0.0
17/01:00pm 36.4 34.0 13.8 26 14.2 N 19 33 10 18 1012.1 1009.1 0.0
17/12:30pm 35.7 33.1 13.2 26 14.0 NNW 19 32 10 17 1012.4 1009.4 0.0
17/12:00pm 34.9 32.8 12.5 25 13.8 N 15 26 8 14 1012.5 1009.5 0.0
17/11:30am 33.6 30.8 11.5 26 13.3 N 17 24 9 13 1013.2 1010.2 0.0
17/11:00am 32.8 32.0 12.9 29 12.2 NW 9 11 5 6 1013.4 1010.5 0.0
17/10:30am 31.2 30.7 12.1 31 11.5 N 6 13 3 7 1013.7 1010.8 0.0
17/10:00am 30.6 31.2 13.0 34 10.7 ENE 2 7 1 4 1014.1 1011.1 0.0
17/09:30am 28.1 29.5 14.3 42 8.5 CALM 0 6 0 3 1014.5 1011.5 0.0
17/09:00am 26.2 27.1 14.0 47 7.4 NW 2 9 1 5 1014.8 1011.8 0.0
17/08:30am 24.6 25.3 13.5 50 6.7 WNW 2 9 1 5 1014.9 1012.0 0.0
17/08:00am 22.7 23.8 13.5 56 5.5 CALM 0 2 0 1 1014.7 1011.7 0.0
17/07:30am 21.3 22.6 14.0 63 4.4 CALM 0 0 0 0 1014.8 1011.8 0.0
17/07:00am 20.3 21.9 14.9 71 3.3 CALM 0 0 0 0 1015.0 1012.1 0.0
17/06:30am 17.8 18.8 13.3 75 2.6 CALM 0 0 0 0 1014.7 1011.7 0.0
17/06:00am 18.2 19.3 13.5 74 2.7 CALM 0 0 0 0 1014.5 1011.5 0.0
17/05:30am 18.5 19.6 13.4 72 3.0 CALM 0 0 0 0 1014.3 1011.3 0.0
17/05:00am 19.1 20.3 13.7 71 3.2 CALM 0 0 0 0 1013.9 1010.9 0.0
17/04:30am 19.7 20.4 13.4 67 3.7 WNW 2 6 1 3 1014.2 1011.2 0.0
17/04:00am 19.7 19.7 13.6 68 3.6 WNW 6 9 3 5 1014.1 1011.1 0.0
17/03:30am 20.2 21.5 14.1 68 3.6 CALM 0 0 0 0 1014.2 1011.2 0.0
17/03:00am 20.3 21.5 13.7 66 3.9 CALM 0 0 0 0 1014.6 1011.6 0.0
17/02:30am 20.9 22.1 13.8 64 4.2 CALM 0 6 0 3 1014.7 1011.7 0.0
17/02:00am 21.3 22.1 13.7 62 4.5 ENE 2 6 1 3 1015.0 1012.1 0.0
17/01:30am 21.5 22.3 12.6 57 5.2 CALM 0 0 0 0 1015.0 1012.1 0.0
17/01:00am 22.9 23.3 12.5 52 6.1 NNE 2 6 1 3 1015.0 1012.1 0.0
17/12:30am 24.3 23.7 12.3 47 7.0 SE 7 9 4 5 1015.2 1012.3 0.0
17/12:00am 24.1 24.5 12.4 48 6.9 WSW 2 7 1 4 1015.2 1012.3 0.0
 
Date/Time
EDT
Temp
°C
App
Temp
°C
Dew
Point
°C
Rel
Hum
%
Delta-T
°C
Wind Press
QNH
hPa
Press
MSL
hPa
Rain since
9am
mm
Dir  Spd
km/h
Gust
km/h
Spd
kts
Gust
kts
16/11:30pm 25.1 25.6 11.6 42 7.9 CALM 0 2 0 1 1015.1 1012.2 0.0
16/11:00pm 26.7 27.2 11.6 39 8.9 CALM 0 0 0 0 1015.0 1012.1 0.0
16/10:30pm 28.5 29.0 11.6 35 10.0 CALM 0 7 0 4 1014.9 1012.0 0.0
16/10:00pm 29.0 28.0 12.4 36 10.0 SSW 9 11 5 6 1014.9 1012.0 0.0
16/09:30pm 30.0 29.8 12.9 35 10.4 SW 6 9 3 5 1014.2 1011.2 0.0
16/09:00pm 31.3 29.0 13.1 33 11.1 SSW 17 20 9 11 1013.6 1010.7 0.0
16/08:30pm 32.5 30.5 12.7 30 12.1 SSE 15 24 8 13 1013.1 1010.1 0.0
16/08:00pm 34.1 32.0 12.4 26 13.3 ESE 15 22 8 12 1012.1 1009.1 0.0
16/07:30pm 35.4 33.1 10.4 22 14.9 ESE 13 22 7 12 1011.2 1008.2 0.0
16/07:00pm 37.3 33.7 8.2 17 17.0 ESE 17 26 9 14 1010.7 1007.7 0.0
16/06:30pm 38.5 35.6 6.3 14 18.3 SE 11 20 6 11 1010.1 1007.1 0.0
16/06:00pm 38.3 35.4 8.1 16 17.7 ESE 13 19 7 10 1010.0 1007.0 0.0
16/05:30pm 38.2 35.7 8.0 16 17.6 E 11 19 6 10 1010.1 1007.1 0.0
16/05:00pm 37.8 34.0 7.7 16 17.5 W 17 35 9 19 1010.5 1007.5 0.0
16/04:30pm 38.1 36.3 7.9 16 17.6 NW 7 13 4 7 1010.5 1007.5 0.0
16/04:00pm 38.8 36.1 7.5 15 18.2 NNW 11 19 6 10 1010.6 1007.6 0.0
16/03:30pm 38.9 36.4 6.6 14 18.5 NNW 9 15 5 8 1010.8 1007.8 0.0
16/03:00pm 39.0 38.1 7.7 15 18.2 WSW 2 7 1 4 1011.1 1008.1 0.0
16/02:30pm 38.9 36.6 7.6 15 18.2 WSW 9 15 5 8 1011.3 1008.3 0.0
16/02:00pm 38.9 37.2 7.6 15 18.2 NNE 6 15 3 8 1011.6 1008.6 0.0
16/01:30pm 38.9 37.0 7.6 15 18.2 ENE 7 17 4 9 1011.8 1008.9 0.0
16/01:00pm 38.8 37.1 8.5 16 17.8 ESE 7 11 4 6 1012.3 1009.3 0.0
16/12:30pm 37.8 36.3 8.6 17 17.1 NNE 6 13 3 7 1012.7 1009.7 0.0
16/12:00pm 37.0 35.6 8.8 18 16.6 WNW 6 9 3 5 1013.1 1010.1 0.0
16/11:30am 36.3 35.6 11.9 23 14.9 NE 7 11 4 6 1013.3 1010.4 0.0
16/11:00am 34.9 34.0 12.5 25 13.8 WNW 9 11 5 6 1013.5 1010.6 0.0
16/10:30am 33.9 34.2 14.4 31 12.3 NNW 6 11 3 6 1013.7 1010.8 0.0
16/10:00am 32.6 33.0 14.7 34 11.3 NW 6 9 3 5 1013.9 1010.9 0.0
16/09:30am 30.4 30.6 14.1 37 10.1 NW 6 7 3 4 1014.1 1011.1 0.0
16/09:00am 28.5 28.6 14.0 41 8.9 WNW 6 9 3 5 1014.3 1011.3 0.0
16/08:30am 27.2 27.4 14.6 46 7.8 NW 7 9 4 5 1014.2 1011.2 0.0
16/08:00am 26.0 27.4 14.5 49 7.0 CALM 0 0 0 0 1014.1 1011.1 0.0
16/07:30am 23.6 25.1 14.6 57 5.5 CALM 0 0 0 0 1013.7 1010.8 0.0
16/07:00am 21.3 22.8 14.7 66 4.0 CALM 0 0 0 0 1013.4 1010.5 0.0
16/06:30am 19.9 21.4 14.7 72 3.1 CALM 0 7 0 4 1013.1 1010.1 0.0
16/06:00am 19.7 20.0 13.4 67 3.7 NNW 4 7 2 4 1012.8 1009.8 0.0
16/05:30am 20.2 21.5 14.1 68 3.6 CALM 0 0 0 0 1012.7 1009.7 0.0
16/05:00am 19.9 21.0 13.4 66 3.8 CALM 0 0 0 0 1012.5 1009.5 0.0
16/04:30am 20.7 21.6 12.9 61 4.6 CALM 0 0 0 0 1012.4 1009.4 0.0
16/04:00am 21.4 22.0 12.0 55 5.4 CALM 0 0 0 0 1012.4 1009.4 0.0
16/03:30am 22.5 22.9 11.3 49 6.4 CALM 0 0 0 0 1012.5 1009.5 0.0
16/03:00am 22.8 22.3 10.9 47 6.8 WNW 4 7 2 4 1012.7 1009.7 0.0
16/02:30am 22.9 23.3 11.3 48 6.7 CALM 0 0 0 0 1012.6 1009.6 0.0
16/02:00am 24.1 23.1 10.4 42 7.8 SE 6 7 3 4 1012.8 1009.8 0.0
16/01:30am 24.3 22.7 10.2 41 8.0 E 9 13 5 7 1013.1 1010.1 0.0
16/01:00am 23.4 21.9 10.5 44 7.3 NW 9 13 5 7 1013.3 1010.4 0.0
16/12:30am 22.6 23.4 12.5 53 5.9 CALM 0 0 0 0 1012.6 1009.6 0.0
16/12:00am 23.4 22.6 11.8 48 6.7 W 7 9 4 5 1012.5 1009.5 0.0
 
Date/Time
EDT
Temp
°C
App
Temp
°C
Dew
Point
°C
Rel
Hum
%
Delta-T
°C
Wind Press
QNH
hPa
Press
MSL
hPa
Rain since
9am
mm
Dir  Spd
km/h
Gust
km/h
Spd
kts
Gust
kts
15/11:30pm 23.1 23.7 11.8 49 6.5 CALM 0 0 0 0 1012.7 1009.7 0.0
15/11:00pm 24.0 25.2 13.8 53 6.1 CALM 0 0 0 0 1012.6 1009.6 0.0
15/10:30pm 25.0 25.9 12.9 47 7.2 CALM 0 0 0 0 1012.5 1009.5 0.0
15/10:00pm 25.7 26.2 11.5 41 8.3 CALM 0 0 0 0 1012.5 1009.5 0.0
15/09:30pm 27.0 27.8 12.6 41 8.6 CALM 0 0 0 0 1012.5 1009.5 0.0
15/09:00pm 28.3 27.9 8.1 28 11.3 CALM 0 0 0 0 1012.3 1009.3 0.0
15/08:30pm 31.3 30.8 7.7 23 13.3 CALM 0 6 0 3 1011.8 1008.9 0.0
15/08:00pm 34.6 31.8 5.1 16 16.2 WSW 9 13 5 7 1011.6 1008.6 0.0
15/07:30pm 36.9 32.5 5.0 14 17.7 WSW 17 20 9 11 1011.3 1008.3 0.0
15/07:00pm 37.7 32.7 4.6 13 18.3 W 20 30 11 16 1011.1 1008.1 0.0
15/06:30pm 38.1 34.3 6.0 14 18.2 W 15 22 8 12 1011.1 1008.1 0.0
15/06:00pm 37.1 33.2 5.2 14 17.8 SW 15 30 8 16 1011.0 1008.0 0.0
15/05:30pm 37.3 34.2 7.3 16 17.2 SSW 13 17 7 9 1010.9 1007.9 0.0
15/05:00pm 38.9 35.1 7.6 15 18.2 SSW 17 28 9 15 1011.0 1008.0 0.0
15/04:30pm 37.5 32.7 5.5 14 17.9 WSW 20 33 11 18 1011.3 1008.3 0.0
15/04:00pm 38.4 34.3 6.2 14 18.3 WSW 17 33 9 18 1011.4 1008.4 0.0
15/03:30pm 38.8 34.6 7.5 15 18.2 NW 19 30 10 16 1011.5 1008.5 0.0
15/03:00pm 38.6 34.0 6.3 14 18.4 WNW 20 35 11 19 1012.1 1009.1 0.0
15/02:30pm 38.0 33.5 6.9 15 17.8 W 20 35 11 19 1012.4 1009.4 0.0
15/02:00pm 38.3 33.4 5.0 13 18.6 W 20 32 11 17 1012.4 1009.4 0.0
15/01:30pm 38.2 33.3 5.0 13 18.5 W 20 37 11 20 1012.7 1009.7 0.0
15/01:00pm 37.8 32.6 5.7 14 18.1 WNW 22 35 12 19 1013.2 1010.2 0.0
15/12:30pm 36.5 35.1 14.5 27 14.0 NW 15 26 8 14 1013.3 1010.4 0.0
15/12:00pm 34.9 33.4 13.1 27 13.5 NNW 13 22 7 12 1013.7 1010.8 0.0
15/11:30am 34.2 32.9 13.6 29 12.8 NNW 13 20 7 11 1014.1 1011.1 0.0
15/11:00am 32.9 32.1 14.0 32 11.8 NNW 11 15 6 8 1014.5 1011.5 0.0
15/10:30am 31.8 30.4 13.5 32 11.3 NW 13 20 7 11 1014.8 1011.8 0.0
15/10:00am 30.7 30.3 15.2 39 9.8 NNW 11 20 6 11 1015.1 1012.2 0.0
15/09:30am 28.9 29.4 15.1 43 8.6 NW 6 11 3 6 1015.3 1012.4 0.0
15/09:00am 27.0 29.0 17.8 57 5.9 WNW 4 7 2 4 1015.4 1012.5 0.0
15/08:30am 25.2 27.4 16.6 59 5.4 CALM 0 0 0 0 1015.5 1012.6 0.0
15/08:00am 23.2 25.4 16.5 66 4.2 CALM 0 0 0 0 1015.7 1012.7 0.0
15/07:30am 21.5 23.6 16.2 72 3.3 CALM 0 0 0 0 1015.3 1012.4 0.0
15/07:00am 19.4 21.8 17.0 86 1.5 CALM 0 0 0 0 1015.1 1012.2 0.0
15/06:30am 18.0 20.0 16.0 88 1.2 CALM 0 0 0 0 1014.8 1011.8 0.0
15/06:00am 18.1 20.0 15.7 86 1.5 CALM 0 0 0 0 1014.7 1011.7 0.0
15/05:30am 18.7 20.7 16.1 85 1.6 CALM 0 0 0 0 1014.5 1011.5 0.0
15/05:00am 18.7 20.7 16.1 85 1.6 CALM 0 0 0 0 1014.4 1011.4 0.0
15/04:30am 19.1 21.1 16.0 82 1.9 CALM 0 0 0 0 1014.3 1011.3 0.0
15/04:00am 19.8 21.8 16.1 79 2.3 CALM 0 0 0 0 1014.3 1011.3 0.0
15/03:30am 20.1 22.1 16.1 78 2.5 CALM 0 0 0 0 1014.4 1011.4 0.0
15/03:00am 20.5 22.5 16.1 76 2.7 CALM 0 0 0 0 1014.5 1011.5 0.0
15/02:30am 20.9 23.2 16.7 77 2.6 CALM 0 0 0 0 1014.7 1011.7 0.0
15/02:00am 21.7 23.9 16.4 72 3.3 CALM 0 0 0 0 1014.7 1011.7 0.0
15/01:30am 21.9 23.9 16.0 69 3.6 CALM 0 0 0 0 1015.0 1012.1 0.0
15/01:00am 22.5 24.6 16.3 68 3.9 CALM 0 0 0 0 1015.1 1012.2 0.0
15/12:30am 23.9 26.1 16.4 63 4.7 CALM 0 0 0 0 1015.1 1012.2 0.0
15/12:00am 24.8 26.6 15.4 56 5.8 CALM 0 0 0 0 1015.0 1012.1 0.0
 
Date/Time
EDT
Temp
°C
App
Temp
°C
Dew
Point
°C
Rel
Hum
%
Delta-T
°C
Wind Press
QNH
hPa
Press
MSL
hPa
Rain since
9am
mm
Dir  Spd
km/h
Gust
km/h
Spd
kts
Gust
kts
14/11:30pm 25.9 26.5 15.9 54 6.3 E 7 9 4 5 1014.9 1012.0 0.0
14/11:00pm 25.8 28.0 16.6 56 5.8 CALM 0 6 0 3 1015.1 1012.2 0.0
14/10:30pm 26.4 28.8 16.9 56 6.0 CALM 0 0 0 0 1014.7 1011.7 0.0
14/10:00pm 26.8 28.5 15.2 49 7.2 CALM 0 0 0 0 1014.5 1011.5 0.0

Other Formats:

Comma delimited format used in spreadsheet applications
http://www.bom.gov.au/fwo/IDN60801/IDN60801.94925.axf

JavaScript Object Notation format (JSON) in row-major order
http://www.bom.gov.au/fwo/IDN60801/IDN60801.94925.json